メインページ
METAR-TAF:

METAR-TAF

空港 :

バーレーン, バーレーン

バーレーン国際空港

緯度: 26-16N, 経度: 050-39E, 海抜: 2m

現時点の気象観測

当レポートは10分前の14:30(UTC)に作成
北/北西の風 8kt
気温 37°C
湿度 68%
気圧 995 hPa
視程10km以上
1,500メートル以下は雲なし、積乱雲なし

METAR: OBBI 261430Z 34008KT CAVOK 37/30 Q0995 NOSIG

時間: 17:40 (14:40 UTC)

予報

当レポートは3時間40分前の11:00(UTC)に作成
予報は26日の 12時(UTC)から 27日の 18時(UTC)まで有効
北/北西の風 14kt
視程10km以上
1,500メートル以下は雲なし、積乱雲なし
26日の 16時(UTC)から 26日の 18時(UTC)まで徐々に
西の風 6kt
27日の 06時(UTC)から 27日の 08時(UTC)まで徐々に
の風 12kt

TAF: OBBI 261100Z 2612/2718 34014KT CAVOK BECMG 2616/2618 28006KT BECMG 2706/2708 35012KT

4,000以上の空港の気象観測と天気予報(METAR報とTAF報)

利用可能な観測所は地図上に黄色い丸と赤い丸で示す。

丸の上にカーソルを重ねると観測所名を参照できる。

次にクリックすると気象観測と天気予報を参照できる。

マップの切り替え:黒色「×」印の緑ボタンをクリックして拡大、「-」印の緑ボタンをクリックして縮小、緑色の三角印をクリックして隣りの地図に切り替え


METAR-TAF: